< < Back
Terminal Aerodrome Forecast


Current Version              Previous Versions:   1  2  3  4  5  6  7  8  9  

Terminal Aerodrome Forecast

294
FTUS42 KFFC 241737
TAFCSG
TAF
KCSG 241737Z 2418/2518 13007KT P6SM SCT030 BKN060
     FM242000 10006KT P6SM VCSH SCT035 BKN050
     FM250100 10004KT P6SM FEW060 SCT150
     FM251500 13005KT P6SM SCT040=



Latest METAR

632
SAUS70 KWBC 250800 RRA
MTRCSG
METAR KCSG 250751Z AUTO 11004KT 10SM CLR 24/21 A3014 RMK AO2 SLP199
T02390211


USA.gov is the U.S. government's official web portal to all federal, state and local government web resources and services.